Time;durP1;ratioP1;P1;durP2;ratioP2;P2;SDS_P1;SDS_P2;PMS_P1;PMS_P2;Temp;Humidity;BMP_temperature;BMP_pressure;BME280_temperature;BME280_humidity;BME280_pressure;Samples;Min_cycle;Max_cycle;Signal;HPM_P1;HPM_P2
2022/03/05 00:00:20;;;;;;;23.05;10.63;;;;;;;1.18;46.27;93656.91;5005672;28;20084;-74
2022/03/05 00:02:46;;;;;;;21.85;10.40;;;;;;;1.22;47.00;93651.91;5005671;28;20030;-73
2022/03/05 00:05:13;;;;;;;23.77;11.63;;;;;;;1.19;47.00;93661.09;5005681;28;20030;-73
2022/03/05 00:07:38;;;;;;;25.20;11.30;;;;;;;1.23;47.39;93650.09;5005489;28;20217;-74
2022/03/05 00:10:04;;;;;;;22.58;11.13;;;;;;;1.29;47.43;93654.31;5005538;28;20090;-74
2022/03/05 00:12:30;;;;;;;25.27;11.30;;;;;;;1.31;47.77;93660.88;5005538;28;20030;-73
2022/03/05 00:14:56;;;;;;;22.50;10.95;;;;;;;1.34;47.07;93655.13;5005297;28;20093;-73
2022/03/05 00:17:21;;;;;;;28.92;10.85;;;;;;;1.29;47.64;93647.22;5005434;28;20026;-73
2022/03/05 00:19:47;;;;;;;26.63;12.15;;;;;;;1.28;47.83;93653.50;5005444;28;20029;-73
2022/03/05 00:22:12;;;;;;;23.73;10.35;;;;;;;1.30;47.80;93648.78;5005163;28;20049;-73
2022/03/05 00:24:38;;;;;;;26.00;10.73;;;;;;;1.32;48.07;93649.34;5005270;28;20308;-73
2022/03/05 00:27:04;;;;;;;18.13;9.70;;;;;;;1.28;47.86;93650.88;5005406;28;20018;-74
2022/03/05 00:29:30;;;;;;;22.13;11.43;;;;;;;1.28;47.76;93655.34;5005223;28;20026;-73
2022/03/05 00:31:55;;;;;;;25.10;11.13;;;;;;;1.26;47.98;93652.97;5005170;28;20032;-73
2022/03/05 00:34:21;;;;;;;20.98;10.35;;;;;;;1.28;48.40;93663.22;5005080;28;20033;-73
2022/03/05 00:36:46;;;;;;;21.40;12.05;;;;;;;1.31;48.06;93658.25;5004858;28;20042;-73
2022/03/05 00:39:12;;;;;;;22.23;10.73;;;;;;;1.28;48.52;93660.59;5004834;28;20033;-73
2022/03/05 00:41:37;;;;;;;26.48;12.32;;;;;;;1.26;48.37;93652.97;5004984;28;20045;-74
2022/03/05 00:44:03;;;;;;;26.77;11.10;;;;;;;1.29;48.11;93656.94;5003813;28;20327;-73
2022/03/05 00:46:29;;;;;;;24.70;11.65;;;;;;;1.25;48.14;93650.63;5004785;28;20068;-74
2022/03/05 00:48:54;;;;;;;23.35;10.10;;;;;;;1.24;48.37;93649.81;5004734;28;20033;-74
2022/03/05 00:51:20;;;;;;;32.70;12.98;;;;;;;1.20;48.56;93643.50;5004496;28;20023;-74
2022/03/05 00:53:45;;;;;;;22.50;11.50;;;;;;;1.16;48.11;93645.06;5004543;28;20026;-74
2022/03/05 00:56:11;;;;;;;30.55;12.60;;;;;;;1.17;47.91;93651.91;5004545;28;20037;-73
2022/03/05 00:58:36;;;;;;;26.80;12.73;;;;;;;1.12;47.30;93646.66;5004888;28;20101;-73
2022/03/05 01:01:02;;;;;;;24.95;12.30;;;;;;;1.13;48.45;93640.34;5004430;28;20050;-74
2022/03/05 01:03:28;;;;;;;26.58;12.13;;;;;;;1.12;48.38;93644.81;5004573;28;20030;-75
2022/03/05 01:05:54;;;;;;;27.05;11.57;;;;;;;1.07;47.31;93638.78;5004364;28;20050;-74
2022/03/05 01:08:20;;;;;;;30.27;12.75;;;;;;;1.11;47.31;93637.22;5004278;28;20277;-74
2022/03/05 01:10:45;;;;;;;24.90;11.18;;;;;;;1.15;48.42;93633.00;5004464;28;20026;-74
2022/03/05 01:13:11;;;;;;;25.02;11.40;;;;;;;1.18;48.48;93629.84;5004292;28;20022;-75
2022/03/05 01:15:36;;;;;;;21.55;12.05;;;;;;;1.20;49.02;93633.81;5004367;28;20037;-74
2022/03/05 01:18:02;;;;;;;23.67;11.25;;;;;;;1.18;47.88;93630.66;5004265;28;20022;-74
2022/03/05 01:20:28;;;;;;;26.40;11.50;;;;;;;1.13;47.92;93627.22;5004213;28;20313;-74
2022/03/05 01:22:53;;;;;;;26.58;11.63;;;;;;;1.09;47.61;93624.34;5004170;28;20333;-75
2022/03/05 01:25:19;;;;;;;32.10;11.77;;;;;;;1.13;48.11;93622.75;5003889;28;20030;-73
2022/03/05 01:27:44;;;;;;;25.05;11.50;;;;;;;1.19;47.44;93619.09;5004166;28;20128;-74
2022/03/05 01:30:11;;;;;;;22.92;11.70;;;;;;;1.24;48.24;93628.03;5004103;28;20022;-73
2022/03/05 01:32:36;;;;;;;23.42;12.05;;;;;;;1.28;48.25;93627.25;5003989;28;20033;-74
2022/03/05 01:38:31;;;;;;;27.02;11.57;;;;;;;1.39;47.46;93622.81;4998635;28;20080;-73
2022/03/05 01:40:57;;;;;;;26.88;11.27;;;;;;;1.48;47.42;93618.59;5003374;28;20112;-73
2022/03/05 01:43:23;;;;;;;27.85;12.23;;;;;;;1.53;47.28;93620.47;5003707;28;20026;-73
2022/03/05 01:45:48;;;;;;;26.02;11.93;;;;;;;1.54;48.26;93632.53;5003735;28;20073;-73
2022/03/05 01:48:14;;;;;;;32.78;13.93;;;;;;;1.56;48.71;93625.97;5003808;28;20036;-73
2022/03/05 01:50:40;;;;;;;32.40;13.88;;;;;;;1.60;49.53;93618.34;5003713;28;20022;-74
2022/03/05 01:53:05;;;;;;;30.67;14.88;;;;;;;1.60;49.58;93626.22;5003653;28;20022;-73
2022/03/05 01:55:31;;;;;;;30.50;13.13;;;;;;;1.59;49.60;93625.47;5018571;28;20041;-73
2022/03/05 01:57:57;;;;;;;25.95;13.50;;;;;;;1.64;49.44;93621.25;5003391;28;20093;-74
2022/03/05 02:00:22;;;;;;;25.48;12.25;;;;;;;1.68;48.38;93623.09;5003581;28;20022;-74
2022/03/05 02:02:48;;;;;;;27.05;12.48;;;;;;;1.72;48.96;93625.97;5003643;28;20046;-73
2022/03/05 02:05:14;;;;;;;25.05;12.13;;;;;;;1.73;49.45;93617.84;5003499;28;20027;-73
2022/03/05 02:07:40;;;;;;;27.52;12.95;;;;;;;1.74;49.83;93616.78;5003710;28;20094;-73
2022/03/05 02:10:08;;;;;;;30.05;13.60;;;;;;;1.73;50.04;93620.47;5003455;28;20101;-73
2022/03/05 02:12:36;;;;;;;31.88;14.00;;;;;;;1.76;50.14;93614.66;5003327;28;20023;-73
2022/03/05 02:15:03;;;;;;;26.38;12.70;;;;;;;1.77;50.18;93616.25;5003296;28;20033;-73
2022/03/05 02:17:29;;;;;;;28.88;13.65;;;;;;;1.76;50.03;93617.31;5003259;28;20049;-73
2022/03/05 02:19:55;;;;;;;28.55;14.85;;;;;;;1.82;50.80;93612.06;5003276;28;20023;-73
2022/03/05 02:22:21;;;;;;;32.85;14.80;;;;;;;1.85;51.13;93611.50;5003306;28;20046;-73
2022/03/05 02:24:58;;;;;;;28.63;14.32;;;;;;;1.81;50.98;93619.13;5003283;28;20029;-73
2022/03/05 02:27:25;;;;;;;29.30;13.02;;;;;;;1.82;50.71;93612.06;5003218;28;20025;-73
2022/03/05 02:29:51;;;;;;;32.78;15.07;;;;;;;1.83;50.62;93618.88;5003365;28;20052;-73
2022/03/05 02:32:16;;;;;;;31.63;14.07;;;;;;;1.85;50.79;93612.28;5003220;28;20216;-74
2022/03/05 02:34:42;;;;;;;33.28;15.18;;;;;;;1.86;50.39;93619.13;5003269;28;20025;-73
2022/03/05 02:37:11;;;;;;;33.88;15.73;;;;;;;1.94;50.90;93612.56;5003284;28;20022;-74
2022/03/05 02:39:37;;;;;;;35.45;15.60;;;;;;;1.99;51.12;93616.00;5018384;28;20072;-74
2022/03/05 02:42:03;;;;;;;44.00;18.58;;;;;;;2.02;51.77;93619.13;5003075;28;20321;-74
2022/03/05 02:44:28;;;;;;;38.30;16.92;;;;;;;1.97;51.74;93617.28;5018427;28;20026;-74
2022/03/05 02:46:54;;;;;;;40.10;15.85;;;;;;;1.98;51.96;93618.88;5002985;28;20029;-74
2022/03/05 02:49:19;;;;;;;29.08;14.77;;;;;;;1.99;51.18;93625.69;5003129;28;20026;-74
2022/03/05 02:51:45;;;;;;;28.17;14.13;;;;;;;2.01;51.35;93620.97;5003099;28;20030;-73
2022/03/05 02:54:10;;;;;;;28.48;12.68;;;;;;;2.03;50.67;93623.31;5003036;28;20332;-73
2022/03/05 02:56:36;;;;;;;24.23;12.95;;;;;;;1.99;50.56;93621.25;5003018;28;20049;-73
2022/03/05 02:59:02;;;;;;;30.25;13.50;;;;;;;2.03;51.47;93623.31;5003039;28;20046;-73
2022/03/05 03:01:27;;;;;;;28.70;14.68;;;;;;;2.02;52.39;93617.28;5002979;28;20407;-73
2022/03/05 03:03:53;;;;;;;23.65;13.20;;;;;;;2.04;52.90;93615.19;5002889;28;20018;-74
2022/03/05 03:06:18;;;;;;;23.50;11.88;;;;;;;2.06;50.99;93623.59;5003531;28;20026;-74
2022/03/05 03:08:44;;;;;;;26.70;12.50;;;;;;;2.04;49.43;93614.41;5006301;28;20030;-74
2022/03/05 03:11:09;;;;;;;24.80;11.77;;;;;;;2.05;47.90;93621.22;5006842;28;20030;-74
2022/03/05 03:13:35;;;;;;;30.40;11.63;;;;;;;2.06;47.41;93620.19;5006592;28;20342;-74
2022/03/05 03:16:00;;;;;;;21.65;10.68;;;;;;;2.06;47.17;93623.59;5006453;28;20329;-75
2022/03/05 03:18:26;;;;;;;24.88;11.50;;;;;;;2.08;47.18;93631.22;5006532;28;20026;-75
2022/03/05 03:20:51;;;;;;;27.80;12.93;;;;;;;2.07;47.10;93621.75;5006273;28;20026;-73
2022/03/05 03:23:17;;;;;;;26.75;11.20;;;;;;;2.08;47.33;93618.84;5006224;28;20022;-74
2022/03/05 03:25:42;;;;;;;23.77;12.30;;;;;;;2.07;47.21;93606.75;5006458;28;20391;-74
2022/03/05 03:28:08;;;;;;;24.33;11.75;;;;;;;2.08;48.56;93621.47;5006473;28;20359;-74
2022/03/05 03:30:35;;;;;;;26.20;12.30;;;;;;;2.09;48.64;93622.28;5006101;28;20072;-73
2022/03/05 03:33:00;;;;;;;24.48;12.25;;;;;;;2.09;50.31;93617.00;5006222;28;20466;-73
2022/03/05 03:35:26;;;;;;;23.70;11.18;;;;;;;2.06;49.85;93625.44;5006149;28;20028;-74
2022/03/05 03:37:52;;;;;;;24.77;12.40;;;;;;;2.01;49.74;93631.47;5005841;28;20045;-74
2022/03/05 03:40:18;;;;;;;23.73;12.25;;;;;;;2.00;50.39;93625.44;5005889;28;20220;-74
2022/03/05 03:42:45;;;;;;;26.60;13.02;;;;;;;2.00;50.87;93629.91;5006173;28;20022;-74
2022/03/05 03:45:11;;;;;;;28.75;12.98;;;;;;;1.92;50.96;93633.06;5006063;28;20030;-74
2022/03/05 03:47:39;;;;;;;26.10;14.07;;;;;;;1.92;51.14;93633.06;5006248;28;20025;-74
2022/03/05 03:50:06;;;;;;;30.10;14.55;;;;;;;1.89;52.18;93639.63;5005869;28;20094;-74
2022/03/05 03:52:32;;;;;;;24.48;12.80;;;;;;;1.87;52.47;93633.06;5005760;28;20045;-74
2022/03/05 03:54:57;;;;;;;25.95;13.68;;;;;;;1.84;52.64;93633.59;5005779;28;20030;-73
2022/03/05 03:57:23;;;;;;;29.50;13.15;;;;;;;1.78;52.02;93636.22;5005715;28;20033;-74
2022/03/05 03:59:51;;;;;;;24.40;13.00;;;;;;;1.77;51.99;93636.47;5005776;28;20026;-73
2022/03/05 04:02:18;;;;;;;32.58;13.63;;;;;;;1.73;51.81;93641.50;5005709;28;20034;-74
2022/03/05 04:04:43;;;;;;;30.35;13.48;;;;;;;1.71;50.94;93634.91;5005742;28;20064;-74
2022/03/05 04:09:54;;;;;;;27.80;13.60;;;;;;;1.58;49.99;93631.75;5005580;28;20077;-74
2022/03/05 04:12:20;;;;;;;28.35;13.60;;;;;;;1.50;50.47;93634.13;5005471;28;20022;-73
2022/03/05 04:14:45;;;;;;;26.40;12.95;;;;;;;1.44;51.12;93643.03;5005512;28;20068;-74
2022/03/05 04:17:10;;;;;;;29.67;14.18;;;;;;;1.42;51.30;93650.38;5004973;28;20042;-74
2022/03/05 04:19:36;;;;;;;28.42;14.55;;;;;;;1.37;51.07;93646.69;5005477;28;20034;-74
2022/03/05 04:22:02;;;;;;;29.10;14.77;;;;;;;1.35;51.59;93650.66;5005377;28;20097;-74
2022/03/05 04:24:28;;;;;;;24.88;13.30;;;;;;;1.30;52.43;93640.13;5005313;28;20037;-74
2022/03/05 04:26:53;;;;;;;34.03;14.18;;;;;;;1.30;52.29;93646.16;5005217;28;20093;-74
2022/03/05 04:29:18;;;;;;;35.13;14.05;;;;;;;1.25;52.96;93656.66;5020421;28;20088;-73
2022/03/05 04:31:44;;;;;;;26.20;12.98;;;;;;;1.17;53.42;93649.28;5005058;28;20220;-73
2022/03/05 04:34:10;;;;;;;30.23;13.48;;;;;;;1.10;52.19;93660.06;5005126;28;20022;-74
2022/03/05 04:36:35;;;;;;;24.65;12.80;;;;;;;1.05;51.71;93660.03;5004936;28;20022;-74
2022/03/05 04:39:01;;;;;;;29.38;13.55;;;;;;;0.93;51.39;93660.25;5005157;28;20022;-74
2022/03/05 04:41:26;;;;;;;40.53;14.93;;;;;;;0.85;51.33;93657.34;5004755;28;20046;-74
2022/03/05 04:43:52;;;;;;;41.83;14.00;;;;;;;0.78;52.22;93649.72;5004885;28;20229;-75
2022/03/05 04:46:17;;;;;;;28.23;13.40;;;;;;;0.74;52.53;93654.66;5004735;28;20082;-74
2022/03/05 04:48:42;;;;;;;27.73;13.27;;;;;;;0.74;53.10;93656.50;5004790;28;20076;-74
2022/03/05 04:51:08;;;;;;;34.33;14.18;;;;;;;0.73;53.74;93649.66;5004776;28;20029;-74
2022/03/05 04:53:33;;;;;;;33.15;14.48;;;;;;;0.69;53.79;93654.66;5004811;28;20014;-74
2022/03/05 04:55:59;;;;;;;32.75;15.10;;;;;;;0.70;54.01;93653.59;5004449;28;20049;-74
2022/03/05 04:58:24;;;;;;;28.73;14.52;;;;;;;0.69;54.72;93659.91;5004572;28;20027;-73
2022/03/05 05:00:50;;;;;;;31.98;13.27;;;;;;;0.69;55.10;93659.91;5004545;28;20026;-74
2022/03/05 05:03:15;;;;;;;32.30;15.48;;;;;;;0.69;54.89;93653.84;5004383;28;20108;-74
2022/03/05 05:05:41;;;;;;;29.10;13.80;;;;;;;0.68;54.58;93657.53;5004560;28;20328;-74
2022/03/05 05:08:06;;;;;;;34.17;15.75;;;;;;;0.66;54.81;93659.63;5004619;28;20050;-74
2022/03/05 05:10:32;;;;;;;35.20;16.48;;;;;;;0.66;54.35;93660.41;5004369;28;20026;-73
2022/03/05 05:12:57;;;;;;;36.00;14.98;;;;;;;0.71;54.74;93662.25;5004391;28;20038;-75
2022/03/05 05:15:23;;;;;;;30.80;13.98;;;;;;;0.75;54.87;93663.31;5004283;28;20026;-75
2022/03/05 05:17:48;;;;;;;27.27;13.52;;;;;;;0.78;54.24;93665.44;5019199;28;20026;-75
2022/03/05 05:20:14;;;;;;;28.27;14.27;;;;;;;0.83;53.27;93670.69;5004246;28;20038;-74
2022/03/05 05:22:39;;;;;;;31.52;14.35;;;;;;;0.87;54.79;93681.47;5004306;28;20042;-74
2022/03/05 05:25:06;;;;;;;36.70;16.08;;;;;;;0.93;54.76;93683.84;5003915;28;20225;-74
2022/03/05 05:27:36;;;;;;;28.45;13.93;;;;;;;0.95;54.65;93689.63;5019309;28;20045;-74
2022/03/05 05:30:01;;;;;;;27.40;13.75;;;;;;;0.99;53.16;93692.53;5018595;28;20237;-73
2022/03/05 05:32:27;;;;;;;27.38;13.23;;;;;;;1.02;53.71;93684.16;5003976;28;20033;-74
2022/03/05 05:34:52;;;;;;;35.63;14.15;;;;;;;1.04;53.42;93697.00;5003991;28;20094;-74
2022/03/05 05:37:18;;;;;;;34.85;15.45;;;;;;;1.09;52.86;93700.47;5003928;28;20229;-73
2022/03/05 05:39:43;;;;;;;27.02;14.13;;;;;;;1.19;53.07;93705.75;5003738;28;20026;-74
2022/03/05 05:42:09;;;;;;;32.63;15.30;;;;;;;1.19;51.85;93711.00;5019124;28;20054;-75
2022/03/05 05:44:35;;;;;;;38.25;18.10;;;;;;;1.20;51.28;93717.84;5003781;28;20113;-73
2022/03/05 05:47:00;;;;;;;42.15;17.40;;;;;;;1.13;51.01;93704.16;5003685;28;20050;-73
2022/03/05 05:49:26;;;;;;;36.35;17.60;;;;;;;1.17;50.89;93707.84;5003447;28;20033;-74
2022/03/05 05:51:51;;;;;;;38.95;17.27;;;;;;;1.23;51.33;93711.28;5003615;28;20023;-74
2022/03/05 05:54:17;;;;;;;37.13;17.55;;;;;;;1.26;51.93;93705.50;5003597;28;20018;-73
2022/03/05 05:56:42;;;;;;;30.98;15.23;;;;;;;1.33;51.53;93721.03;5003394;28;20022;-72
2022/03/05 05:59:08;;;;;;;37.00;17.35;;;;;;;1.37;50.73;93712.34;5003629;28;20339;-73
2022/03/05 06:01:33;;;;;;;36.25;16.02;;;;;;;1.46;51.33;93720.50;5003526;28;20339;-78
2022/03/05 06:03:59;;;;;;;41.35;18.00;;;;;;;1.49;52.69;93727.09;5003511;28;20025;-72
2022/03/05 06:06:24;;;;;;;38.33;16.05;;;;;;;1.50;52.36;93731.31;5003487;28;20080;-72
2022/03/05 06:08:50;;;;;;;40.00;17.35;;;;;;;1.54;51.76;93727.09;5003474;28;20030;-70
2022/03/05 06:11:16;;;;;;;41.35;20.00;;;;;;;1.57;51.10;93737.88;5003293;28;20030;-72
2022/03/05 06:13:42;;;;;;;43.40;18.92;;;;;;;1.63;50.97;93735.25;5003385;28;20037;-70
2022/03/05 06:16:08;;;;;;;46.88;19.27;;;;;;;1.69;50.95;93737.66;5003160;28;20026;-71
2022/03/05 06:18:34;;;;;;;51.28;19.35;;;;;;;1.75;50.99;93735.81;5003223;28;20082;-72
2022/03/05 06:20:59;;;;;;;54.53;18.45;;;;;;;1.71;51.84;93747.88;5018405;28;20054;-72
2022/03/05 06:23:25;;;;;;;54.83;21.42;;;;;;;1.69;52.08;93753.41;5003014;28;20037;-71
2022/03/05 06:25:51;;;;;;;47.90;21.25;;;;;;;1.66;52.31;93745.25;5003173;28;20339;-72
2022/03/05 06:28:17;;;;;;;47.33;20.27;;;;;;;1.67;52.33;93744.19;5003221;28;20015;-72
2022/03/05 06:30:43;;;;;;;52.70;21.33;;;;;;;1.70;52.80;93751.56;5003113;28;20030;-71
2022/03/05 06:33:08;;;;;;;43.55;20.27;;;;;;;1.66;52.62;93748.66;5003084;28;20299;-73
2022/03/05 06:35:33;;;;;;;51.80;20.60;;;;;;;1.66;51.62;93758.41;5002928;28;20339;-72
2022/03/05 06:37:59;;;;;;;56.53;21.58;;;;;;;1.64;51.97;93747.38;5002945;28;20026;-71
2022/03/05 06:40:24;;;;;;;48.00;22.15;;;;;;;1.53;51.59;93746.56;5003776;28;20064;-71
2022/03/05 06:42:50;;;;;;;47.13;20.20;;;;;;;1.53;52.06;93742.09;5006998;28;20033;-72
2022/03/05 06:45:15;;;;;;;53.30;21.63;;;;;;;1.53;51.22;93749.97;5006954;28;20229;-72
2022/03/05 06:47:41;;;;;;;46.20;19.45;;;;;;;1.58;49.91;93754.44;5006661;28;20037;-71
2022/03/05 06:50:08;;;;;;;52.28;20.27;;;;;;;1.65;50.00;93755.00;5006988;28;20138;-72
2022/03/05 06:52:34;;;;;;;54.42;21.02;;;;;;;1.73;50.43;93756.28;5006786;28;20034;-72
2022/03/05 06:54:59;;;;;;;43.63;21.02;;;;;;;1.80;50.72;93752.38;5006664;28;20089;-71
2022/03/05 06:57:26;;;;;;;59.90;23.05;;;;;;;1.87;50.89;93756.59;5006313;28;20038;-72
2022/03/05 06:59:52;;;;;;;50.65;20.65;;;;;;;1.93;50.62;93755.53;5006323;28;20030;-72
2022/03/05 07:02:17;;;;;;;46.78;20.63;;;;;;;1.86;50.35;93755.03;5006575;28;20224;-72
2022/03/05 07:04:43;;;;;;;50.25;22.38;;;;;;;1.87;50.36;93743.44;5006419;28;20042;-72
2022/03/05 07:07:08;;;;;;;38.38;18.10;;;;;;;2.05;49.16;93748.19;5006483;28;20025;-72
2022/03/05 07:09:34;;;;;;;48.25;19.33;;;;;;;2.15;48.75;93748.19;5006273;28;20205;-73
2022/03/05 07:12:00;;;;;;;38.08;19.73;;;;;;;2.23;48.08;93746.09;5006034;28;20086;-72
2022/03/05 07:14:25;;;;;;;40.95;18.45;;;;;;;2.23;46.95;93740.84;5006252;28;20037;-71
2022/03/05 07:16:51;;;;;;;43.08;18.95;;;;;;;2.21;47.16;93738.47;5006149;28;20058;-72
2022/03/05 07:19:16;;;;;;;42.40;17.40;;;;;;;2.22;46.66;93747.97;5006316;28;20050;-71
2022/03/05 07:21:42;;;;;;;46.13;19.08;;;;;;;2.25;46.01;93746.63;5005943;28;20033;-72
2022/03/05 07:24:08;;;;;;;43.58;18.83;;;;;;;2.28;46.14;93740.84;5006066;28;20257;-72
2022/03/05 07:26:34;;;;;;;42.63;20.83;;;;;;;2.34;46.26;93745.03;5006167;28;20295;-72
2022/03/05 07:29:00;;;;;;;45.63;21.02;;;;;;;2.45;46.71;93735.31;5006060;28;20113;-71
2022/03/05 07:31:25;;;;;;;46.47;19.08;;;;;;;2.60;47.16;93732.66;5006025;28;20034;-72
2022/03/05 07:33:51;;;;;;;41.13;19.55;;;;;;;2.72;46.56;93727.09;5006175;28;20022;-72
2022/03/05 07:36:17;;;;;;;57.03;20.33;;;;;;;2.85;46.31;93736.28;5005898;28;20224;-72
2022/03/05 07:38:44;;;;;;;47.25;18.42;;;;;;;2.99;45.80;93732.84;5005936;28;20026;-72
2022/03/05 07:41:11;;;;;;;60.85;20.00;;;;;;;3.07;44.72;93733.31;5005704;28;20033;-72
2022/03/05 07:43:36;;;;;;;40.72;18.67;;;;;;;3.19;44.49;93728.53;5005964;28;20122;-73
2022/03/05 07:46:02;;;;;;;42.40;18.67;;;;;;;3.32;44.65;93727.97;5006013;28;20026;-72
2022/03/05 07:48:28;;;;;;;38.03;19.60;;;;;;;3.49;44.18;93726.84;5005701;28;20022;-72
2022/03/05 07:50:53;;;;;;;40.40;19.08;;;;;;;3.63;43.81;93733.09;5005945;28;20374;-72
2022/03/05 07:53:19;;;;;;;37.05;18.42;;;;;;;3.77;43.10;93731.41;5005025;28;20030;-72
2022/03/05 07:55:45;;;;;;;40.25;18.10;;;;;;;3.96;42.88;93731.53;5005793;28;20036;-72
2022/03/05 07:58:10;;;;;;;49.92;19.65;;;;;;;4.04;42.87;93724.13;5005641;28;20033;-72
2022/03/05 08:00:36;;;;;;;45.83;19.63;;;;;;;4.02;42.94;93717.25;5005560;28;20106;-72
2022/03/05 08:03:01;;;;;;;40.33;18.85;;;;;;;4.04;43.19;93732.81;5005490;28;20112;-71
2022/03/05 08:05:27;;;;;;;45.47;19.75;;;;;;;4.03;42.80;93731.25;5005364;28;20025;-72
2022/03/05 08:07:56;;;;;;;36.10;16.95;;;;;;;4.12;41.99;93724.31;5005568;28;20021;-72
2022/03/05 08:10:22;;;;;;;35.05;16.80;;;;;;;4.28;41.73;93732.13;5005427;28;20029;-72
2022/03/05 08:12:51;;;;;;;36.45;15.77;;;;;;;4.43;41.43;93729.34;5005209;28;20026;-74
2022/03/05 08:15:16;;;;;;;51.30;18.40;;;;;;;4.59;41.19;93732.63;5005118;28;20050;-74
2022/03/05 08:17:53;;;;;;;36.70;16.60;;;;;;;4.73;40.98;93732.78;5004178;28;20038;-78
2022/03/05 08:20:19;;;;;;;39.45;18.83;;;;;;;4.82;40.93;93726.63;5003651;28;20030;-74
2022/03/05 08:22:44;;;;;;;40.63;18.10;;;;;;;4.93;40.65;93737.84;5003325;28;20107;-72
2022/03/05 08:25:10;;;;;;;34.15;16.98;;;;;;;4.99;40.12;93735.94;5004197;28;20026;-72
2022/03/05 08:27:35;;;;;;;53.05;25.50;;;;;;;5.07;39.85;93726.59;5005037;28;20085;-74
2022/03/05 08:30:02;;;;;;;34.78;17.17;;;;;;;5.20;40.14;93736.50;5004737;28;20026;-72
2022/03/05 08:32:28;;;;;;;37.05;17.38;;;;;;;5.34;39.88;93732.09;5004099;28;20030;-72
2022/03/05 08:34:53;;;;;;;40.40;16.13;;;;;;;5.51;39.69;93730.84;5004832;28;20030;-73
2022/03/05 08:37:19;;;;;;;32.75;16.73;;;;;;;5.59;39.81;93738.94;5005045;28;20084;-73
2022/03/05 08:39:44;;;;;;;36.53;17.38;;;;;;;5.62;39.70;93732.31;5004934;28;20018;-73
2022/03/05 08:42:10;;;;;;;34.78;16.38;;;;;;;5.72;39.90;93732.16;5002411;28;20042;-73
2022/03/05 08:44:35;;;;;;;38.22;17.55;;;;;;;5.91;40.19;93740.09;5004151;28;20022;-73
2022/03/05 08:47:01;;;;;;;110.05;27.30;;;;;;;6.03;40.39;93735.19;5004206;28;20317;-73
2022/03/05 08:49:26;;;;;;;38.05;18.95;;;;;;;6.15;40.11;93734.75;5002894;28;20324;-73
2022/03/05 08:51:52;;;;;;;39.40;18.35;;;;;;;6.28;40.38;93733.22;5002876;28;20336;-72
2022/03/05 08:54:20;;;;;;;37.28;18.15;;;;;;;6.33;41.02;93729.72;5003047;28;20093;-73
2022/03/05 08:56:45;;;;;;;46.10;19.33;;;;;;;6.41;41.52;93723.75;5002753;28;20045;-73
2022/03/05 08:59:11;;;;;;;43.70;18.77;;;;;;;6.46;42.10;93728.97;5003039;28;20076;-74
2022/03/05 09:01:38;;;;;;;43.22;19.40;;;;;;;6.52;42.69;93719.88;5003438;28;20030;-73
2022/03/05 09:04:04;;;;;;;78.25;20.42;;;;;;;6.63;43.27;93729.22;5003397;28;20125;-73
2022/03/05 09:06:29;;;;;;;44.60;20.48;;;;;;;6.71;43.78;93719.03;5004376;28;20027;-73
2022/03/05 09:08:56;;;;;;;37.15;18.80;;;;;;;6.79;43.40;93726.31;5004129;28;20295;-72
2022/03/05 09:11:22;;;;;;;161.85;30.00;;;;;;;6.83;43.93;93737.88;5004214;28;20316;-73
2022/03/05 09:13:47;;;;;;;47.58;18.08;;;;;;;6.86;44.43;93728.56;5004152;28;20129;-73
2022/03/05 09:16:13;;;;;;;32.03;16.25;;;;;;;6.85;45.35;93733.09;5004179;28;20069;-73
2022/03/05 09:18:39;;;;;;;42.40;15.75;;;;;;;6.94;45.38;93722.59;5004194;28;20026;-73
2022/03/05 09:21:04;;;;;;;36.80;16.67;;;;;;;6.92;46.78;93724.75;5003963;28;20104;-73
2022/03/05 09:23:30;;;;;;;38.92;16.20;;;;;;;6.97;46.60;93728.09;5004014;28;20242;-72
2022/03/05 09:25:55;;;;;;;33.90;15.00;;;;;;;6.95;46.10;93724.94;5003829;28;20034;-72
2022/03/05 09:28:21;;;;;;;64.75;18.92;;;;;;;6.96;46.27;93720.44;5003989;28;20049;-73
2022/03/05 09:30:46;;;;;;;24.90;12.57;;;;;;;7.05;46.17;93723.22;5004208;28;20078;-72
2022/03/05 09:33:12;;;;;;;32.22;14.38;;;;;;;7.09;46.09;93722.31;5003925;28;20057;-72
2022/03/05 09:35:38;;;;;;;30.90;13.40;;;;;;;7.20;45.59;93728.19;5003596;28;20038;-72
2022/03/05 09:38:04;;;;;;;26.67;13.40;;;;;;;7.32;45.67;93731.16;5003628;28;20049;-73
2022/03/05 09:40:29;;;;;;;22.63;12.63;;;;;;;7.39;44.75;93720.94;5003696;28;20030;-73
2022/03/05 09:42:55;;;;;;;25.13;11.93;;;;;;;7.50;44.09;93724.16;5003651;28;20254;-73
2022/03/05 09:45:21;;;;;;;31.00;12.43;;;;;;;7.49;44.24;93716.50;5003851;28;20045;-73
2022/03/05 09:47:47;;;;;;;26.88;12.88;;;;;;;7.52;44.38;93723.88;5003493;28;20212;-72
2022/03/05 09:50:13;;;;;;;30.98;13.05;;;;;;;7.51;44.38;93717.00;5003725;28;20030;-72
2022/03/05 09:52:39;;;;;;;24.20;12.65;;;;;;;7.55;43.75;93721.44;5003574;28;20037;-72
2022/03/05 09:55:05;;;;;;;22.35;12.55;;;;;;;7.58;44.27;93720.03;5003460;28;20034;-72
2022/03/05 09:57:31;;;;;;;25.88;13.05;;;;;;;7.66;44.24;93716.69;5003405;28;20093;-72
2022/03/05 09:59:56;;;;;;;41.20;15.07;;;;;;;7.67;44.58;93712.16;5003425;28;20326;-72
2022/03/05 10:02:22;;;;;;;31.20;13.77;;;;;;;7.69;44.37;93716.06;5003583;28;20101;-72
2022/03/05 10:04:47;;;;;;;27.83;13.88;;;;;;;7.72;44.76;93718.16;5003591;28;20026;-72
2022/03/05 10:07:16;;;;;;;27.10;14.48;;;;;;;7.72;45.16;93715.50;5003618;28;20224;-72
2022/03/05 10:09:44;;;;;;;31.23;15.18;;;;;;;7.71;44.93;93713.91;5003439;28;20026;-72
2022/03/05 10:12:29;;;;;;;30.58;15.93;;;;;;;7.77;44.76;93715.38;5003457;28;20264;-72
2022/03/05 10:15:11;;;;;;;27.83;13.35;;;;;;;7.84;44.84;93707.81;5003024;28;20034;-72
2022/03/05 10:17:58;;;;;;;33.33;13.40;;;;;;;7.80;44.61;93706.81;5003182;28;20030;-72
2022/03/05 10:20:29;;;;;;;33.28;16.27;;;;;;;7.82;44.42;93715.28;5003309;28;20038;-72
2022/03/05 10:23:06;;;;;;;30.90;15.00;;;;;;;7.82;44.70;93712.63;5003137;28;20213;-72
2022/03/05 10:25:35;;;;;;;26.98;14.43;;;;;;;7.84;44.59;93709.69;5003058;28;20022;-72
2022/03/05 10:28:10;;;;;;;37.45;15.32;;;;;;;7.89;44.59;93712.19;5003339;28;20018;-72
2022/03/05 10:30:38;;;;;;;35.08;16.50;;;;;;;7.86;44.39;93714.66;5003191;28;20034;-72
2022/03/05 10:33:04;;;;;;;27.50;14.68;;;;;;;7.82;44.92;93709.19;5003092;28;20102;-72
2022/03/05 10:35:30;;;;;;;28.33;16.30;;;;;;;7.82;44.88;93715.28;5002887;28;20041;-72
2022/03/05 10:37:55;;;;;;;35.42;15.52;;;;;;;7.91;45.04;93711.91;5002997;28;20232;-73
2022/03/05 10:40:26;;;;;;;33.80;16.75;;;;;;;7.95;45.40;93704.91;5002994;28;20029;-73
2022/03/05 10:42:51;;;;;;;30.60;17.02;;;;;;;8.07;45.19;93710.47;5003101;28;20098;-73
2022/03/05 10:45:18;;;;;;;30.98;15.48;;;;;;;8.09;44.95;93696.91;5003027;28;20026;-73
2022/03/05 10:47:46;;;;;;;40.03;17.40;;;;;;;8.02;44.96;93700.00;5003247;28;20113;-73
2022/03/05 10:50:14;;;;;;;35.58;15.38;;;;;;;7.99;44.96;93708.53;5003231;28;20029;-73
2022/03/05 10:52:48;;;;;;;35.75;15.93;;;;;;;7.83;45.76;93706.22;5003518;28;20049;-73
2022/03/05 10:55:18;;;;;;;33.47;16.02;;;;;;;7.75;46.49;93703.50;5018328;28;20026;-72
2022/03/05 10:57:57;;;;;;;34.55;17.50;;;;;;;7.61;46.61;93692.91;5002881;28;20030;-72
2022/03/05 11:00:22;;;;;;;33.45;15.00;;;;;;;7.58;46.84;93696.94;5002775;28;20026;-72
2022/03/05 11:02:51;;;;;;;25.98;14.88;;;;;;;7.52;47.37;93700.00;5002889;28;20390;-73
2022/03/05 11:05:19;;;;;;;30.17;14.68;;;;;;;7.49;47.86;93690.78;5002576;28;20018;-73
2022/03/05 11:07:45;;;;;;;30.63;13.63;;;;;;;7.54;47.84;93692.53;5003129;28;20034;-72
2022/03/05 11:10:11;;;;;;;27.27;14.52;;;;;;;7.63;48.09;93686.25;5002881;28;20269;-72
2022/03/05 11:12:39;;;;;;;27.92;15.90;;;;;;;7.72;48.13;93688.19;5002912;28;20026;-72
2022/03/05 11:15:08;;;;;;;40.58;17.45;;;;;;;7.83;48.14;93681.56;5002716;28;20022;-72
2022/03/05 11:17:34;;;;;;;42.47;16.85;;;;;;;7.90;47.99;93678.50;5002548;28;20347;-73
2022/03/05 11:20:00;;;;;;;33.70;16.77;;;;;;;7.90;47.83;93678.50;5002554;28;20026;-72
2022/03/05 11:22:26;;;;;;;26.48;15.13;;;;;;;7.83;48.09;93669.06;5002751;28;20030;-72
2022/03/05 11:24:52;;;;;;;24.55;14.48;;;;;;;7.82;48.48;93661.44;5002572;28;20257;-72